KSME/SME METAR and TAF weather

Enter ICAO airport designator
Station Type Date Time Source
KSME METAR 2018/12/15 23:15 UTC NOAA

KSME 152315Z AUTO 24003KT 7SM -RA OVC050 10/10 A2991 RMK AO2 P0003


Station Type Date Time Source
KSME Decoded METAR 2018/12/15 23:15 UTC NOAA

Somerset, Somerset-Pulaski County - J.T. Wilson Field Airport, KY, United States (KSME) 37-03-15N 084-36-54W
Dec 15, 2018 - 06:15 PM EST / 2018.12.15 2315 UTC
Wind: from the WSW (240 degrees) at 3 MPH (3 KT):0
Visibility: 7 mile(s):0
Sky conditions: overcast
Weather: light rain
Precipitation last hour: 0.03 inches
Temperature: 50 F (10 C)
Dew Point: 50 F (10 C)
Relative Humidity: 100%
Pressure (altimeter): 29.91 in. Hg (1012 hPa)
ob: KSME 152315Z AUTO 24003KT 7SM -RA OVC050 10/10 A2991 RMK AO2 P0003
cycle: 23

Station Type Date Time Source
KSME TAF 2018/12/15 18:48 UTC NOAA

TAF KSME 151736Z 1518/1618 VRB03KT P6SM SHRA OVC035
FM151900 VRB03KT 4SM SHRA BR OVC025
FM152000 VRB03KT 3SM SHRA BR OVC015
FM160100 24005KT 3SM -SHRA BR OVC007
FM160900 26006KT 5SM BR VCSH OVC003
FM161200 28006KT P6SM OVC007


Example: see airport list